MST,Max TemperatureF,Mean TemperatureF,Min TemperatureF,Max Dew PointF,MeanDew PointF,Min DewpointF,Max Humidity, Mean Humidity, Min Humidity, Max Sea Level PressureIn, Mean Sea Level PressureIn, Min Sea Level PressureIn, Max VisibilityMiles, Mean VisibilityMiles, Min VisibilityMiles, Max Wind SpeedMPH, Mean Wind SpeedMPH, Max Gust SpeedMPH,PrecipitationIn, CloudCover, Events, WindDirDegrees
2013-7-1,113,103,93,55,51,43,26,17,11,29.82,29.73,29.63,10,10,10,26,9,41,0.00,0,,199
2013-7-2,111,101,91,57,50,46,28,18,12,29.88,29.76,29.64,10,10,10,26,9,32,0.00,0,,174
2013-7-3,116,104,91,54,48,41,28,17,8,29.77,29.67,29.54,10,10,10,25,7,29,0.00,0,,183
2013-7-4,111,101,91,55,50,45,25,18,14,29.71,29.62,29.53,10,10,10,23,7,26,0.00,0,,178
2013-7-5,105,97,89,59,52,41,34,22,12,29.73,29.66,29.60,10,10,10,24,10,32,0.00,0,,188
2013-7-6,109,98,86,54,47,41,29,19,11,29.75,29.67,29.59,10,10,10,14,4,,0.00,0,,157
2013-7-7,113,100,87,50,43,34,24,15,7,29.74,29.66,29.59,10,10,10,21,5,31,0.00,0,Thunderstorm,172
2013-7-8,113,98,84,43,34,28,19,10,6,29.83,29.76,29.69,10,10,10,16,6,26,0.00,0,,202
2013-7-9,111,98,84,50,40,27,19,13,9,29.96,29.85,29.77,10,10,10,16,5,23,0.00,0,,185
2013-7-10,102,93,84,64,58,43,45,30,16,29.92,29.83,29.74,10,10,10,20,7,24,0.00,0,,197
2013-7-11,95,85,75,72,64,59,89,47,32,29.98,29.86,29.79,10,10,3,31,12,39,0.05,1,Thunderstorm,187
2013-7-12,98,90,82,66,63,59,55,40,27,29.88,29.82,29.75,10,10,10,20,5,25,0.00,0,,288
2013-7-13,107,94,82,64,57,50,54,29,15,29.89,29.80,29.72,10,10,10,14,4,22,0.00,0,,209
2013-7-14,111,100,89,57,53,48,29,21,12,29.84,29.76,29.67,10,10,10,24,5,30,0.00,0,,182
2013-7-15,111,100,89,59,54,45,33,23,12,29.77,29.69,29.58,10,10,10,21,6,26,0.00,0,,169
2013-7-16,105,96,87,57,50,41,33,20,12,29.84,29.76,29.69,10,10,10,22,8,29,0.00,0,,173
2013-7-17,107,96,86,63,54,46,45,26,15,29.96,29.88,29.80,10,10,10,14,7,20,0.00,0,,206
2013-7-18,111,99,87,57,50,41,28,19,12,29.90,29.80,29.68,10,10,10,29,5,32,0.00,0,,181
2013-7-19,107,99,91,63,57,54,30,24,18,29.84,29.76,29.67,10,10,10,18,7,24,0.00,0,Thunderstorm,191
2013-7-20,100,92,84,68,63,55,58,37,26,29.86,29.76,29.66,10,10,10,23,11,28,0.01,0,Thunderstorm,191
2013-7-21,91,86,82,72,68,63,70,54,43,29.89,29.83,29.75,10,10,10,18,8,25,0.00,0,Thunderstorm,193
2013-7-22,100,91,82,68,62,57,58,39,24,29.95,29.87,29.79,10,10,10,14,6,20,0.00,0,Thunderstorm,188
2013-7-23,104,96,87,61,58,55,40,28,20,29.92,29.84,29.75,10,10,10,12,6,18,0.00,1,,204
2013-7-24,109,99,89,63,57,54,34,25,17,29.85,29.77,29.66,10,10,10,15,5,,0.00,0,,203
2013-7-25,109,100,91,64,57,50,41,25,14,29.89,29.81,29.74,10,10,10,28,10,34,0.00,0,,189
2013-7-26,98,94,89,63,61,57,38,34,27,29.98,29.93,29.88,10,10,10,14,4,,0.00,0,,199
2013-7-27,102,91,80,66,64,59,61,40,24,29.96,29.86,29.75,10,10,7,30,9,44,0.00,1,Thunderstorm,348
2013-7-28,98,89,80,72,63,54,70,41,27,29.83,29.75,29.67,10,10,2,28,4,38,0.17,1,Rain-Thunderstorm,255
2013-7-29,107,94,82,61,46,32,48,23,7,29.88,29.82,29.74,10,10,10,20,6,29,0.00,0,,186
2013-7-30,107,94,82,54,46,41,37,19,10,30.02,29.94,29.87,10,10,10,18,5,25,0.00,0,,195
2013-7-31,109,96,84,52,48,45,33,20,12,29.98,29.88,29.77,10,10,10,21,5,30,0.00,0,,185